sensor_id;sensor_type;location;lat;lon;timestamp;P1;durP1;ratioP1;P2;durP2;ratioP2
46643;SDS011;32371;51.032;5.816;2023-03-14T00:00:55;8.07;;;1.23;;
46643;SDS011;32371;51.032;5.816;2023-03-14T00:03:20;3.50;;;1.13;;
46643;SDS011;32371;51.032;5.816;2023-03-14T00:05:46;7.10;;;1.20;;
46643;SDS011;32371;51.032;5.816;2023-03-14T00:08:11;1.42;;;0.50;;
46643;SDS011;32371;51.032;5.816;2023-03-14T00:10:37;3.50;;;0.50;;
46643;SDS011;32371;51.032;5.816;2023-03-14T00:13:03;5.03;;;0.70;;
46643;SDS011;32371;51.032;5.816;2023-03-14T00:15:28;3.42;;;0.40;;
46643;SDS011;32371;51.032;5.816;2023-03-14T00:17:54;0.80;;;0.30;;
46643;SDS011;32371;51.032;5.816;2023-03-14T00:20:19;4.93;;;0.40;;
46643;SDS011;32371;51.032;5.816;2023-03-14T00:22:44;4.20;;;0.63;;
46643;SDS011;32371;51.032;5.816;2023-03-14T00:25:11;1.65;;;0.40;;
46643;SDS011;32371;51.032;5.816;2023-03-14T00:27:36;0.80;;;0.22;;
46643;SDS011;32371;51.032;5.816;2023-03-14T00:30:03;2.40;;;0.40;;
46643;SDS011;32371;51.032;5.816;2023-03-14T00:32:29;1.13;;;0.38;;
46643;SDS011;32371;51.032;5.816;2023-03-14T00:34:54;1.20;;;0.45;;
46643;SDS011;32371;51.032;5.816;2023-03-14T00:37:20;1.55;;;0.68;;
46643;SDS011;32371;51.032;5.816;2023-03-14T00:39:45;5.50;;;0.60;;
46643;SDS011;32371;51.032;5.816;2023-03-14T00:42:11;1.30;;;0.45;;
46643;SDS011;32371;51.032;5.816;2023-03-14T00:44:36;0.52;;;0.50;;
46643;SDS011;32371;51.032;5.816;2023-03-14T00:47:02;7.93;;;1.20;;
46643;SDS011;32371;51.032;5.816;2023-03-14T00:49:27;0.90;;;0.30;;
46643;SDS011;32371;51.032;5.816;2023-03-14T00:51:52;2.53;;;0.40;;
46643;SDS011;32371;51.032;5.816;2023-03-14T00:54:18;3.05;;;0.93;;
46643;SDS011;32371;51.032;5.816;2023-03-14T00:56:44;2.75;;;0.30;;
46643;SDS011;32371;51.032;5.816;2023-03-14T00:59:09;2.35;;;0.40;;
46643;SDS011;32371;51.032;5.816;2023-03-14T01:01:35;0.75;;;0.43;;
46643;SDS011;32371;51.032;5.816;2023-03-14T01:04:00;1.02;;;0.57;;
46643;SDS011;32371;51.032;5.816;2023-03-14T01:06:27;4.13;;;0.90;;
46643;SDS011;32371;51.032;5.816;2023-03-14T01:08:53;6.20;;;0.63;;
46643;SDS011;32371;51.032;5.816;2023-03-14T01:11:20;2.38;;;0.55;;
46643;SDS011;32371;51.032;5.816;2023-03-14T01:13:48;3.03;;;0.85;;
46643;SDS011;32371;51.032;5.816;2023-03-14T01:16:13;2.58;;;0.80;;
46643;SDS011;32371;51.032;5.816;2023-03-14T01:18:40;2.83;;;0.50;;
46643;SDS011;32371;51.032;5.816;2023-03-14T01:21:10;5.30;;;0.73;;
46643;SDS011;32371;51.032;5.816;2023-03-14T01:26:16;0.70;;;0.52;;
46643;SDS011;32371;51.032;5.816;2023-03-14T01:28:44;3.55;;;0.63;;
46643;SDS011;32371;51.032;5.816;2023-03-14T01:31:09;1.35;;;0.50;;
46643;SDS011;32371;51.032;5.816;2023-03-14T01:33:35;2.63;;;0.70;;
46643;SDS011;32371;51.032;5.816;2023-03-14T01:36:01;5.90;;;0.70;;
46643;SDS011;32371;51.032;5.816;2023-03-14T01:38:31;6.03;;;1.33;;
46643;SDS011;32371;51.032;5.816;2023-03-14T01:40:57;3.22;;;0.70;;
46643;SDS011;32371;51.032;5.816;2023-03-14T01:43:23;5.10;;;0.85;;
46643;SDS011;32371;51.032;5.816;2023-03-14T01:46:09;5.03;;;0.70;;
46643;SDS011;32371;51.032;5.816;2023-03-14T01:48:52;6.63;;;1.13;;
46643;SDS011;32371;51.032;5.816;2023-03-14T01:53:50;2.17;;;0.43;;
46643;SDS011;32371;51.032;5.816;2023-03-14T01:56:17;5.10;;;1.48;;
46643;SDS011;32371;51.032;5.816;2023-03-14T01:58:45;4.13;;;0.40;;
46643;SDS011;32371;51.032;5.816;2023-03-14T02:01:13;2.65;;;0.70;;
46643;SDS011;32371;51.032;5.816;2023-03-14T02:03:44;3.92;;;0.77;;
46643;SDS011;32371;51.032;5.816;2023-03-14T02:06:13;4.20;;;0.77;;
46643;SDS011;32371;51.032;5.816;2023-03-14T02:08:40;7.35;;;1.25;;
46643;SDS011;32371;51.032;5.816;2023-03-14T02:11:05;4.22;;;0.65;;
46643;SDS011;32371;51.032;5.816;2023-03-14T02:13:32;3.80;;;0.80;;
46643;SDS011;32371;51.032;5.816;2023-03-14T02:15:58;1.95;;;0.50;;
46643;SDS011;32371;51.032;5.816;2023-03-14T02:18:23;5.97;;;0.60;;
46643;SDS011;32371;51.032;5.816;2023-03-14T02:20:57;7.40;;;1.08;;
46643;SDS011;32371;51.032;5.816;2023-03-14T02:25:58;6.03;;;0.98;;
46643;SDS011;32371;51.032;5.816;2023-03-14T02:28:28;7.85;;;1.05;;
46643;SDS011;32371;51.032;5.816;2023-03-14T02:30:54;4.32;;;1.08;;
46643;SDS011;32371;51.032;5.816;2023-03-14T02:33:19;8.60;;;3.42;;
46643;SDS011;32371;51.032;5.816;2023-03-14T02:35:47;8.45;;;0.80;;
46643;SDS011;32371;51.032;5.816;2023-03-14T02:38:32;7.28;;;0.88;;
46643;SDS011;32371;51.032;5.816;2023-03-14T02:41:00;5.40;;;0.63;;
46643;SDS011;32371;51.032;5.816;2023-03-14T02:43:26;0.73;;;0.38;;
46643;SDS011;32371;51.032;5.816;2023-03-14T02:45:52;6.05;;;0.70;;
46643;SDS011;32371;51.032;5.816;2023-03-14T02:48:19;5.55;;;0.55;;
46643;SDS011;32371;51.032;5.816;2023-03-14T02:50:47;4.05;;;1.10;;
46643;SDS011;32371;51.032;5.816;2023-03-14T02:53:14;6.25;;;1.00;;
46643;SDS011;32371;51.032;5.816;2023-03-14T02:55:47;10.98;;;1.10;;
46643;SDS011;32371;51.032;5.816;2023-03-14T02:58:13;7.47;;;1.08;;
46643;SDS011;32371;51.032;5.816;2023-03-14T03:00:38;2.88;;;1.08;;
46643;SDS011;32371;51.032;5.816;2023-03-14T03:03:04;5.78;;;0.95;;
46643;SDS011;32371;51.032;5.816;2023-03-14T03:05:31;6.45;;;1.05;;
46643;SDS011;32371;51.032;5.816;2023-03-14T03:07:56;8.40;;;1.50;;
46643;SDS011;32371;51.032;5.816;2023-03-14T03:10:22;2.42;;;0.60;;
46643;SDS011;32371;51.032;5.816;2023-03-14T03:12:47;3.20;;;1.10;;
46643;SDS011;32371;51.032;5.816;2023-03-14T03:15:13;3.22;;;0.50;;
46643;SDS011;32371;51.032;5.816;2023-03-14T03:17:38;1.70;;;0.50;;
46643;SDS011;32371;51.032;5.816;2023-03-14T03:20:04;4.90;;;0.80;;
46643;SDS011;32371;51.032;5.816;2023-03-14T03:22:30;2.92;;;1.75;;
46643;SDS011;32371;51.032;5.816;2023-03-14T03:24:56;4.13;;;0.75;;
46643;SDS011;32371;51.032;5.816;2023-03-14T03:27:21;4.93;;;1.15;;
46643;SDS011;32371;51.032;5.816;2023-03-14T03:29:46;2.58;;;0.70;;
46643;SDS011;32371;51.032;5.816;2023-03-14T03:32:12;4.38;;;0.65;;
46643;SDS011;32371;51.032;5.816;2023-03-14T03:34:38;4.07;;;0.90;;
46643;SDS011;32371;51.032;5.816;2023-03-14T03:37:03;2.25;;;0.30;;
46643;SDS011;32371;51.032;5.816;2023-03-14T03:39:28;4.20;;;0.77;;
46643;SDS011;32371;51.032;5.816;2023-03-14T03:41:54;3.92;;;0.60;;
46643;SDS011;32371;51.032;5.816;2023-03-14T03:44:19;4.00;;;0.80;;
46643;SDS011;32371;51.032;5.816;2023-03-14T03:46:45;1.25;;;0.40;;
46643;SDS011;32371;51.032;5.816;2023-03-14T03:49:10;5.25;;;0.47;;
46643;SDS011;32371;51.032;5.816;2023-03-14T03:51:35;6.07;;;0.28;;
46643;SDS011;32371;51.032;5.816;2023-03-14T03:54:01;0.75;;;0.40;;
46643;SDS011;32371;51.032;5.816;2023-03-14T03:56:26;1.98;;;0.90;;
46643;SDS011;32371;51.032;5.816;2023-03-14T03:58:52;1.83;;;0.45;;
46643;SDS011;32371;51.032;5.816;2023-03-14T04:01:17;1.55;;;0.20;;
46643;SDS011;32371;51.032;5.816;2023-03-14T04:03:42;3.85;;;0.30;;
46643;SDS011;32371;51.032;5.816;2023-03-14T04:06:09;0.70;;;0.43;;
46643;SDS011;32371;51.032;5.816;2023-03-14T04:08:35;2.55;;;0.77;;
46643;SDS011;32371;51.032;5.816;2023-03-14T04:11:01;4.93;;;1.17;;
46643;SDS011;32371;51.032;5.816;2023-03-14T04:13:27;2.53;;;0.70;;
46643;SDS011;32371;51.032;5.816;2023-03-14T04:15:53;6.35;;;0.73;;
46643;SDS011;32371;51.032;5.816;2023-03-14T04:18:19;4.78;;;0.90;;
46643;SDS011;32371;51.032;5.816;2023-03-14T04:20:45;3.85;;;1.02;;
46643;SDS011;32371;51.032;5.816;2023-03-14T04:23:11;4.35;;;0.50;;
46643;SDS011;32371;51.032;5.816;2023-03-14T04:25:36;3.28;;;0.70;;
46643;SDS011;32371;51.032;5.816;2023-03-14T04:28:02;3.97;;;0.43;;
46643;SDS011;32371;51.032;5.816;2023-03-14T04:30:29;2.67;;;0.55;;
46643;SDS011;32371;51.032;5.816;2023-03-14T04:32:54;4.45;;;0.50;;
46643;SDS011;32371;51.032;5.816;2023-03-14T04:35:20;6.70;;;1.25;;
46643;SDS011;32371;51.032;5.816;2023-03-14T04:37:45;1.88;;;0.40;;
46643;SDS011;32371;51.032;5.816;2023-03-14T04:40:14;5.57;;;0.43;;
46643;SDS011;32371;51.032;5.816;2023-03-14T04:42:40;1.35;;;0.30;;
46643;SDS011;32371;51.032;5.816;2023-03-14T04:45:05;1.67;;;0.75;;
46643;SDS011;32371;51.032;5.816;2023-03-14T04:47:31;0.28;;;0.25;;
46643;SDS011;32371;51.032;5.816;2023-03-14T04:49:57;0.93;;;0.40;;
46643;SDS011;32371;51.032;5.816;2023-03-14T04:52:23;2.05;;;0.28;;
46643;SDS011;32371;51.032;5.816;2023-03-14T04:54:48;1.83;;;0.10;;
46643;SDS011;32371;51.032;5.816;2023-03-14T04:57:13;1.55;;;0.28;;
46643;SDS011;32371;51.032;5.816;2023-03-14T04:59:39;0.45;;;0.20;;
46643;SDS011;32371;51.032;5.816;2023-03-14T05:02:04;1.52;;;0.25;;
46643;SDS011;32371;51.032;5.816;2023-03-14T05:04:30;0.65;;;0.30;;
46643;SDS011;32371;51.032;5.816;2023-03-14T05:06:57;0.43;;;0.10;;
46643;SDS011;32371;51.032;5.816;2023-03-14T05:09:23;0.25;;;0.20;;
46643;SDS011;32371;51.032;5.816;2023-03-14T05:11:48;4.78;;;0.30;;
46643;SDS011;32371;51.032;5.816;2023-03-14T05:14:14;0.55;;;0.17;;
46643;SDS011;32371;51.032;5.816;2023-03-14T05:16:39;1.50;;;0.30;;
46643;SDS011;32371;51.032;5.816;2023-03-14T05:19:05;1.55;;;0.13;;
46643;SDS011;32371;51.032;5.816;2023-03-14T05:21:30;0.20;;;0.15;;
46643;SDS011;32371;51.032;5.816;2023-03-14T05:23:55;2.30;;;0.40;;
46643;SDS011;32371;51.032;5.816;2023-03-14T05:26:21;0.38;;;0.20;;
46643;SDS011;32371;51.032;5.816;2023-03-14T05:28:46;0.57;;;0.32;;
46643;SDS011;32371;51.032;5.816;2023-03-14T05:31:12;0.10;;;0.10;;
46643;SDS011;32371;51.032;5.816;2023-03-14T05:33:37;1.55;;;0.63;;
46643;SDS011;32371;51.032;5.816;2023-03-14T05:36:03;0.10;;;0.10;;
46643;SDS011;32371;51.032;5.816;2023-03-14T05:38:28;0.10;;;0.10;;
46643;SDS011;32371;51.032;5.816;2023-03-14T05:40:54;0.45;;;0.30;;
46643;SDS011;32371;51.032;5.816;2023-03-14T05:43:19;0.80;;;0.10;;
46643;SDS011;32371;51.032;5.816;2023-03-14T05:45:45;1.45;;;0.30;;
46643;SDS011;32371;51.032;5.816;2023-03-14T05:48:10;0.70;;;0.20;;
46643;SDS011;32371;51.032;5.816;2023-03-14T05:50:35;0.30;;;0.15;;
46643;SDS011;32371;51.032;5.816;2023-03-14T05:53:01;3.67;;;0.30;;
46643;SDS011;32371;51.032;5.816;2023-03-14T05:55:26;0.25;;;0.20;;
46643;SDS011;32371;51.032;5.816;2023-03-14T05:57:52;0.60;;;0.30;;
46643;SDS011;32371;51.032;5.816;2023-03-14T06:00:18;0.40;;;0.25;;
46643;SDS011;32371;51.032;5.816;2023-03-14T06:02:44;0.20;;;0.20;;
46643;SDS011;32371;51.032;5.816;2023-03-14T06:05:09;0.35;;;0.30;;
46643;SDS011;32371;51.032;5.816;2023-03-14T06:07:36;2.70;;;0.38;;
46643;SDS011;32371;51.032;5.816;2023-03-14T06:10:01;0.35;;;0.20;;
46643;SDS011;32371;51.032;5.816;2023-03-14T06:12:26;1.27;;;0.43;;
46643;SDS011;32371;51.032;5.816;2023-03-14T06:14:52;2.30;;;0.20;;
46643;SDS011;32371;51.032;5.816;2023-03-14T06:17:17;0.22;;;0.20;;
46643;SDS011;32371;51.032;5.816;2023-03-14T06:19:42;0.40;;;0.20;;
46643;SDS011;32371;51.032;5.816;2023-03-14T06:22:08;0.65;;;0.40;;
46643;SDS011;32371;51.032;5.816;2023-03-14T06:24:34;0.20;;;0.20;;
46643;SDS011;32371;51.032;5.816;2023-03-14T06:27:00;0.08;;;0.00;;
46643;SDS011;32371;51.032;5.816;2023-03-14T06:29:27;0.40;;;0.17;;
46643;SDS011;32371;51.032;5.816;2023-03-14T06:31:52;0.10;;;0.10;;
46643;SDS011;32371;51.032;5.816;2023-03-14T06:34:18;0.45;;;0.25;;
46643;SDS011;32371;51.032;5.816;2023-03-14T06:36:44;3.53;;;0.25;;
46643;SDS011;32371;51.032;5.816;2023-03-14T06:39:09;0.50;;;0.10;;
46643;SDS011;32371;51.032;5.816;2023-03-14T06:41:34;0.17;;;0.15;;
46643;SDS011;32371;51.032;5.816;2023-03-14T06:44:00;0.90;;;0.13;;
46643;SDS011;32371;51.032;5.816;2023-03-14T06:46:25;0.20;;;0.15;;
46643;SDS011;32371;51.032;5.816;2023-03-14T06:48:51;0.30;;;0.10;;
46643;SDS011;32371;51.032;5.816;2023-03-14T06:51:16;1.77;;;0.10;;
46643;SDS011;32371;51.032;5.816;2023-03-14T06:53:41;0.10;;;0.10;;
46643;SDS011;32371;51.032;5.816;2023-03-14T06:56:07;0.22;;;0.22;;
46643;SDS011;32371;51.032;5.816;2023-03-14T06:58:33;0.30;;;0.20;;
46643;SDS011;32371;51.032;5.816;2023-03-14T07:00:58;0.10;;;0.10;;
46643;SDS011;32371;51.032;5.816;2023-03-14T07:03:24;0.10;;;0.08;;
46643;SDS011;32371;51.032;5.816;2023-03-14T07:05:49;0.20;;;0.20;;
46643;SDS011;32371;51.032;5.816;2023-03-14T07:08:15;0.22;;;0.10;;
46643;SDS011;32371;51.032;5.816;2023-03-14T07:10:40;1.02;;;0.30;;
46643;SDS011;32371;51.032;5.816;2023-03-14T07:13:06;0.20;;;0.20;;
46643;SDS011;32371;51.032;5.816;2023-03-14T07:15:31;0.20;;;0.20;;
46643;SDS011;32371;51.032;5.816;2023-03-14T07:17:56;0.10;;;0.10;;
46643;SDS011;32371;51.032;5.816;2023-03-14T07:20:22;0.30;;;0.30;;
46643;SDS011;32371;51.032;5.816;2023-03-14T07:22:48;0.20;;;0.20;;
46643;SDS011;32371;51.032;5.816;2023-03-14T07:25:17;0.40;;;0.32;;
46643;SDS011;32371;51.032;5.816;2023-03-14T07:27:43;0.40;;;0.40;;
46643;SDS011;32371;51.032;5.816;2023-03-14T07:30:10;2.55;;;0.28;;
46643;SDS011;32371;51.032;5.816;2023-03-14T07:32:35;0.93;;;0.50;;
46643;SDS011;32371;51.032;5.816;2023-03-14T07:35:01;1.02;;;0.50;;
46643;SDS011;32371;51.032;5.816;2023-03-14T07:37:26;2.30;;;0.70;;
46643;SDS011;32371;51.032;5.816;2023-03-14T07:39:52;1.13;;;0.60;;
46643;SDS011;32371;51.032;5.816;2023-03-14T07:42:17;0.95;;;0.60;;
46643;SDS011;32371;51.032;5.816;2023-03-14T07:44:42;0.57;;;0.57;;
46643;SDS011;32371;51.032;5.816;2023-03-14T07:47:08;4.45;;;0.57;;
46643;SDS011;32371;51.032;5.816;2023-03-14T07:49:33;3.13;;;0.40;;
46643;SDS011;32371;51.032;5.816;2023-03-14T07:51:59;0.85;;;0.50;;
46643;SDS011;32371;51.032;5.816;2023-03-14T07:54:24;0.93;;;0.60;;
46643;SDS011;32371;51.032;5.816;2023-03-14T07:56:50;0.75;;;0.40;;
46643;SDS011;32371;51.032;5.816;2023-03-14T07:59:17;0.77;;;0.35;;
46643;SDS011;32371;51.032;5.816;2023-03-14T08:01:42;0.95;;;0.45;;
46643;SDS011;32371;51.032;5.816;2023-03-14T08:04:08;2.67;;;0.60;;
46643;SDS011;32371;51.032;5.816;2023-03-14T08:06:34;4.35;;;0.52;;
46643;SDS011;32371;51.032;5.816;2023-03-14T08:09:00;1.13;;;0.45;;
46643;SDS011;32371;51.032;5.816;2023-03-14T08:11:26;0.25;;;0.25;;
46643;SDS011;32371;51.032;5.816;2023-03-14T08:13:51;0.10;;;0.10;;
46643;SDS011;32371;51.032;5.816;2023-03-14T08:16:17;0.35;;;0.03;;
46643;SDS011;32371;51.032;5.816;2023-03-14T08:18:43;0.15;;;0.10;;
46643;SDS011;32371;51.032;5.816;2023-03-14T08:21:09;0.20;;;0.20;;
46643;SDS011;32371;51.032;5.816;2023-03-14T08:23:34;0.75;;;0.22;;
46643;SDS011;32371;51.032;5.816;2023-03-14T08:26:00;1.55;;;0.10;;
46643;SDS011;32371;51.032;5.816;2023-03-14T08:28:25;0.75;;;0.75;;
46643;SDS011;32371;51.032;5.816;2023-03-14T08:30:55;0.28;;;0.28;;
46643;SDS011;32371;51.032;5.816;2023-03-14T08:33:21;0.25;;;0.25;;
46643;SDS011;32371;51.032;5.816;2023-03-14T08:35:47;0.35;;;0.25;;
46643;SDS011;32371;51.032;5.816;2023-03-14T08:38:12;0.20;;;0.20;;
46643;SDS011;32371;51.032;5.816;2023-03-14T08:40:37;0.30;;;0.30;;
46643;SDS011;32371;51.032;5.816;2023-03-14T08:43:03;1.08;;;0.28;;
46643;SDS011;32371;51.032;5.816;2023-03-14T08:45:28;0.20;;;0.20;;
46643;SDS011;32371;51.032;5.816;2023-03-14T08:47:54;0.10;;;0.10;;
46643;SDS011;32371;51.032;5.816;2023-03-14T08:50:19;0.38;;;0.38;;
46643;SDS011;32371;51.032;5.816;2023-03-14T08:52:45;0.60;;;0.32;;
46643;SDS011;32371;51.032;5.816;2023-03-14T08:55:10;0.20;;;0.20;;
46643;SDS011;32371;51.032;5.816;2023-03-14T08:57:35;0.28;;;0.22;;
46643;SDS011;32371;51.032;5.816;2023-03-14T09:00:02;1.55;;;0.20;;
46643;SDS011;32371;51.032;5.816;2023-03-14T09:02:30;1.45;;;0.30;;
46643;SDS011;32371;51.032;5.816;2023-03-14T09:04:55;0.45;;;0.30;;
46643;SDS011;32371;51.032;5.816;2023-03-14T09:07:21;0.57;;;0.30;;
46643;SDS011;32371;51.032;5.816;2023-03-14T09:09:46;0.55;;;0.52;;
46643;SDS011;32371;51.032;5.816;2023-03-14T09:12:12;2.10;;;0.40;;
46643;SDS011;32371;51.032;5.816;2023-03-14T09:14:37;1.17;;;0.20;;
46643;SDS011;32371;51.032;5.816;2023-03-14T09:17:03;0.65;;;0.30;;
46643;SDS011;32371;51.032;5.816;2023-03-14T09:19:29;0.30;;;0.25;;
46643;SDS011;32371;51.032;5.816;2023-03-14T09:21:54;0.68;;;0.20;;
46643;SDS011;32371;51.032;5.816;2023-03-14T09:24:20;0.03;;;0.03;;
46643;SDS011;32371;51.032;5.816;2023-03-14T09:26:45;0.20;;;0.20;;
46643;SDS011;32371;51.032;5.816;2023-03-14T09:29:10;0.35;;;0.20;;
46643;SDS011;32371;51.032;5.816;2023-03-14T09:31:36;1.40;;;0.10;;
46643;SDS011;32371;51.032;5.816;2023-03-14T09:34:01;2.38;;;0.30;;
46643;SDS011;32371;51.032;5.816;2023-03-14T09:36:27;0.55;;;0.30;;
46643;SDS011;32371;51.032;5.816;2023-03-14T09:38:52;1.17;;;0.25;;
46643;SDS011;32371;51.032;5.816;2023-03-14T09:41:22;2.80;;;0.25;;
46643;SDS011;32371;51.032;5.816;2023-03-14T09:43:49;0.50;;;0.30;;
46643;SDS011;32371;51.032;5.816;2023-03-14T09:46:31;1.08;;;0.10;;
46643;SDS011;32371;51.032;5.816;2023-03-14T09:48:58;2.80;;;0.40;;
46643;SDS011;32371;51.032;5.816;2023-03-14T09:51:24;3.20;;;0.38;;
46643;SDS011;32371;51.032;5.816;2023-03-14T09:53:50;0.30;;;0.20;;
46643;SDS011;32371;51.032;5.816;2023-03-14T09:56:21;2.15;;;0.28;;
46643;SDS011;32371;51.032;5.816;2023-03-14T09:58:56;0.75;;;0.30;;
46643;SDS011;32371;51.032;5.816;2023-03-14T10:01:27;0.85;;;0.63;;
46643;SDS011;32371;51.032;5.816;2023-03-14T10:03:55;2.08;;;0.63;;
46643;SDS011;32371;51.032;5.816;2023-03-14T10:06:31;2.75;;;0.20;;
46643;SDS011;32371;51.032;5.816;2023-03-14T10:08:56;2.72;;;0.32;;
46643;SDS011;32371;51.032;5.816;2023-03-14T10:11:22;1.30;;;0.50;;
46643;SDS011;32371;51.032;5.816;2023-03-14T10:14:02;0.45;;;0.45;;
46643;SDS011;32371;51.032;5.816;2023-03-14T10:16:30;3.10;;;0.28;;
46643;SDS011;32371;51.032;5.816;2023-03-14T10:19:04;0.22;;;0.20;;
46643;SDS011;32371;51.032;5.816;2023-03-14T10:21:31;0.20;;;0.20;;
46643;SDS011;32371;51.032;5.816;2023-03-14T10:24:08;0.30;;;0.30;;
46643;SDS011;32371;51.032;5.816;2023-03-14T10:26:33;0.88;;;0.20;;
46643;SDS011;32371;51.032;5.816;2023-03-14T10:29:18;3.90;;;0.60;;
46643;SDS011;32371;51.032;5.816;2023-03-14T10:34:27;1.30;;;0.30;;
46643;SDS011;32371;51.032;5.816;2023-03-14T10:39:45;0.50;;;0.32;;
46643;SDS011;32371;51.032;5.816;2023-03-14T10:42:21;2.95;;;0.57;;
46643;SDS011;32371;51.032;5.816;2023-03-14T10:45:03;0.45;;;0.40;;
46643;SDS011;32371;51.032;5.816;2023-03-14T10:47:32;0.30;;;0.30;;
46643;SDS011;32371;51.032;5.816;2023-03-14T10:50:18;0.75;;;0.60;;
46643;SDS011;32371;51.032;5.816;2023-03-14T10:52:48;2.03;;;0.57;;
46643;SDS011;32371;51.032;5.816;2023-03-14T10:55:14;3.33;;;0.63;;
46643;SDS011;32371;51.032;5.816;2023-03-14T10:57:40;1.52;;;0.35;;
46643;SDS011;32371;51.032;5.816;2023-03-14T11:00:08;3.63;;;0.98;;
46643;SDS011;32371;51.032;5.816;2023-03-14T11:08:31;0.10;;;0.10;;
46643;SDS011;32371;51.032;5.816;2023-03-14T11:11:26;0.10;;;0.10;;
46643;SDS011;32371;51.032;5.816;2023-03-14T11:16:28;0.45;;;0.20;;
46643;SDS011;32371;51.032;5.816;2023-03-14T11:19:32;1.27;;;0.22;;
46643;SDS011;32371;51.032;5.816;2023-03-14T11:22:13;0.47;;;0.20;;
46643;SDS011;32371;51.032;5.816;2023-03-14T11:27:39;2.58;;;0.28;;
46643;SDS011;32371;51.032;5.816;2023-03-14T11:32:50;0.20;;;0.20;;
46643;SDS011;32371;51.032;5.816;2023-03-14T11:35:24;0.45;;;0.43;;
46643;SDS011;32371;51.032;5.816;2023-03-14T11:43:30;0.15;;;0.15;;
46643;SDS011;32371;51.032;5.816;2023-03-14T11:46:10;2.35;;;0.10;;
46643;SDS011;32371;51.032;5.816;2023-03-14T11:51:21;3.55;;;0.40;;
46643;SDS011;32371;51.032;5.816;2023-03-14T11:56:47;0.32;;;0.22;;
46643;SDS011;32371;51.032;5.816;2023-03-14T11:59:21;0.95;;;0.55;;
46643;SDS011;32371;51.032;5.816;2023-03-14T12:07:17;1.55;;;0.43;;
46643;SDS011;32371;51.032;5.816;2023-03-14T12:09:48;4.47;;;0.40;;
46643;SDS011;32371;51.032;5.816;2023-03-14T12:12:22;2.75;;;0.45;;
46643;SDS011;32371;51.032;5.816;2023-03-14T12:14:56;1.65;;;0.60;;
46643;SDS011;32371;51.032;5.816;2023-03-14T12:17:41;3.28;;;0.50;;
46643;SDS011;32371;51.032;5.816;2023-03-14T12:22:43;3.17;;;0.68;;
46643;SDS011;32371;51.032;5.816;2023-03-14T12:30:26;1.20;;;0.50;;
46643;SDS011;32371;51.032;5.816;2023-03-14T12:35:42;8.32;;;0.63;;
46643;SDS011;32371;51.032;5.816;2023-03-14T12:38:10;2.40;;;0.88;;
46643;SDS011;32371;51.032;5.816;2023-03-14T12:40:41;3.00;;;0.52;;
46643;SDS011;32371;51.032;5.816;2023-03-14T12:43:45;7.90;;;1.00;;
46643;SDS011;32371;51.032;5.816;2023-03-14T12:48:43;5.22;;;0.98;;
46643;SDS011;32371;51.032;5.816;2023-03-14T12:51:17;2.25;;;0.65;;
46643;SDS011;32371;51.032;5.816;2023-03-14T12:54:03;8.50;;;1.08;;
46643;SDS011;32371;51.032;5.816;2023-03-14T12:56:55;1.58;;;0.70;;
46643;SDS011;32371;51.032;5.816;2023-03-14T12:59:28;6.07;;;0.68;;
46643;SDS011;32371;51.032;5.816;2023-03-14T13:01:58;3.25;;;0.57;;
46643;SDS011;32371;51.032;5.816;2023-03-14T13:04:26;3.92;;;1.25;;
46643;SDS011;32371;51.032;5.816;2023-03-14T13:06:57;4.85;;;0.70;;
46643;SDS011;32371;51.032;5.816;2023-03-14T13:14:40;10.00;;;1.35;;
46643;SDS011;32371;51.032;5.816;2023-03-14T13:17:14;8.00;;;1.10;;
46643;SDS011;32371;51.032;5.816;2023-03-14T13:19:41;13.30;;;1.88;;
46643;SDS011;32371;51.032;5.816;2023-03-14T13:22:26;9.77;;;1.10;;
46643;SDS011;32371;51.032;5.816;2023-03-14T13:24:59;8.43;;;1.30;;
46643;SDS011;32371;51.032;5.816;2023-03-14T13:27:26;4.13;;;1.10;;
46643;SDS011;32371;51.032;5.816;2023-03-14T13:29:52;13.00;;;1.05;;
46643;SDS011;32371;51.032;5.816;2023-03-14T13:32:21;7.40;;;1.33;;
46643;SDS011;32371;51.032;5.816;2023-03-14T13:34:51;10.27;;;0.85;;
46643;SDS011;32371;51.032;5.816;2023-03-14T13:37:20;8.70;;;1.67;;
46643;SDS011;32371;51.032;5.816;2023-03-14T13:39:54;8.63;;;0.90;;
46643;SDS011;32371;51.032;5.816;2023-03-14T13:42:21;12.00;;;1.33;;
46643;SDS011;32371;51.032;5.816;2023-03-14T13:44:51;11.07;;;2.75;;
46643;SDS011;32371;51.032;5.816;2023-03-14T13:47:18;9.10;;;1.42;;
46643;SDS011;32371;51.032;5.816;2023-03-14T13:49:45;6.22;;;1.00;;
46643;SDS011;32371;51.032;5.816;2023-03-14T13:55:16;6.15;;;1.05;;
46643;SDS011;32371;51.032;5.816;2023-03-14T13:57:44;4.85;;;1.23;;
46643;SDS011;32371;51.032;5.816;2023-03-14T14:00:20;6.82;;;1.40;;
46643;SDS011;32371;51.032;5.816;2023-03-14T14:02:51;11.40;;;1.67;;
46643;SDS011;32371;51.032;5.816;2023-03-14T14:05:18;8.88;;;1.83;;
46643;SDS011;32371;51.032;5.816;2023-03-14T14:07:44;9.75;;;1.20;;
46643;SDS011;32371;51.032;5.816;2023-03-14T14:10:12;7.78;;;1.63;;
46643;SDS011;32371;51.032;5.816;2023-03-14T14:12:58;11.32;;;1.38;;
46643;SDS011;32371;51.032;5.816;2023-03-14T14:15:27;12.07;;;1.33;;
46643;SDS011;32371;51.032;5.816;2023-03-14T14:17:57;7.45;;;1.33;;
46643;SDS011;32371;51.032;5.816;2023-03-14T14:20:32;9.52;;;1.00;;
46643;SDS011;32371;51.032;5.816;2023-03-14T14:23:32;11.75;;;1.55;;
46643;SDS011;32371;51.032;5.816;2023-03-14T14:25:53;9.23;;;1.90;;
46643;SDS011;32371;51.032;5.816;2023-03-14T14:30:45;10.75;;;1.95;;
46643;SDS011;32371;51.032;5.816;2023-03-14T14:33:12;13.88;;;2.33;;
46643;SDS011;32371;51.032;5.816;2023-03-14T14:35:42;15.23;;;1.63;;
46643;SDS011;32371;51.032;5.816;2023-03-14T14:38:16;8.73;;;1.42;;
46643;SDS011;32371;51.032;5.816;2023-03-14T14:40:46;15.23;;;1.05;;
46643;SDS011;32371;51.032;5.816;2023-03-14T14:43:17;8.60;;;1.10;;
46643;SDS011;32371;51.032;5.816;2023-03-14T14:45:46;12.73;;;1.52;;
46643;SDS011;32371;51.032;5.816;2023-03-14T14:48:13;4.53;;;0.90;;
46643;SDS011;32371;51.032;5.816;2023-03-14T14:50:49;12.73;;;1.55;;
46643;SDS011;32371;51.032;5.816;2023-03-14T14:53:27;8.30;;;1.27;;
46643;SDS011;32371;51.032;5.816;2023-03-14T14:55:54;3.88;;;1.50;;
46643;SDS011;32371;51.032;5.816;2023-03-14T14:58:40;3.38;;;1.73;;
46643;SDS011;32371;51.032;5.816;2023-03-14T15:01:14;5.15;;;1.40;;
46643;SDS011;32371;51.032;5.816;2023-03-14T15:03:52;6.50;;;1.13;;
46643;SDS011;32371;51.032;5.816;2023-03-14T15:06:18;2.70;;;0.77;;
46643;SDS011;32371;51.032;5.816;2023-03-14T15:08:45;7.10;;;1.42;;
46643;SDS011;32371;51.032;5.816;2023-03-14T15:11:30;4.43;;;0.70;;
46643;SDS011;32371;51.032;5.816;2023-03-14T15:13:55;4.25;;;0.73;;
46643;SDS011;32371;51.032;5.816;2023-03-14T15:16:22;1.58;;;0.77;;
46643;SDS011;32371;51.032;5.816;2023-03-14T15:18:54;3.63;;;0.70;;
46643;SDS011;32371;51.032;5.816;2023-03-14T15:21:21;3.00;;;0.85;;
46643;SDS011;32371;51.032;5.816;2023-03-14T15:23:47;4.13;;;0.70;;
46643;SDS011;32371;51.032;5.816;2023-03-14T15:26:13;4.50;;;0.60;;
46643;SDS011;32371;51.032;5.816;2023-03-14T15:28:43;2.05;;;0.63;;
46643;SDS011;32371;51.032;5.816;2023-03-14T15:31:10;5.28;;;0.55;;
46643;SDS011;32371;51.032;5.816;2023-03-14T15:33:36;2.65;;;1.02;;
46643;SDS011;32371;51.032;5.816;2023-03-14T15:36:03;6.53;;;1.05;;
46643;SDS011;32371;51.032;5.816;2023-03-14T15:38:29;2.42;;;1.13;;
46643;SDS011;32371;51.032;5.816;2023-03-14T15:40:54;7.43;;;0.70;;
46643;SDS011;32371;51.032;5.816;2023-03-14T15:43:20;7.25;;;1.10;;
46643;SDS011;32371;51.032;5.816;2023-03-14T15:45:45;4.90;;;0.47;;
46643;SDS011;32371;51.032;5.816;2023-03-14T15:48:12;8.43;;;0.80;;
46643;SDS011;32371;51.032;5.816;2023-03-14T15:50:40;2.60;;;0.65;;
46643;SDS011;32371;51.032;5.816;2023-03-14T15:53:05;6.40;;;0.80;;
46643;SDS011;32371;51.032;5.816;2023-03-14T15:55:31;7.57;;;0.95;;
46643;SDS011;32371;51.032;5.816;2023-03-14T15:57:56;4.22;;;0.52;;
46643;SDS011;32371;51.032;5.816;2023-03-14T16:00:24;8.10;;;1.38;;